METAR Data
IDs: Format: Raw Decoded Include TAF

Data at: 1825 UTC 07 Dec 2021

MRPV 071800Z 07013KT 9999 FEW035 25/16 A2999 NOSIG

MROC 071800Z 08015KT 9999 FEW045 28/17 A2996 NOSIG

No METAR found for